Overview Statistics Trail Chart Weather Telemetry Raw packets
 

This is the latest recevied weather packets stored in our database for station/object WASS. If no packets are shown the sender has not sent any weather packets the latest 10 day(s).

<< 1 2 3 4 >>
Time Temp. Humidity Pressure Rain* Wind** Luminosity Snow
1788248212 31.11° C 70% 1 hPa 0 mm - - -
1788246215 32.22° C 67% 1 hPa 0 mm - - -
1788244154 32.22° C 67% 1 hPa 0 mm - - -
1788242148 32.78° C 63% 1 hPa 0 mm - - -
1788240186 32.22° C 71% 1 hPa 0 mm - - -
1788238223 32.22° C 67% 1 hPa 0 mm - - -
1788236243 32.22° C 71% 1 hPa 0 mm - - -
1788234279 31.11° C 70% 1 hPa 0 mm - - -
1788232316 30° C 70% 1 hPa 0 mm - - -
1788230349 31.11° C 70% 1 hPa 0 mm - - -
1788228384 31.11° C 75% 1 hPa 0 mm - - -
1788226417 28.89° C 79% 1 hPa 0 mm - - -
1788224450 28.89° C 79% 1 hPa 0 mm - - -
1788222474 27.22° C 89% 1 hPa 0 mm - - -
1788220539 25° C 99% 1 hPa 0 mm - - -
1788218581 23.89° C 99% 1 hPa 0 mm - - -
1788216616 22.78° C 99% 1 hPa 0 mm - - -
1788214680 23.89° C 94% 1 hPa 0 mm - - -
1788212745 23.89° C 94% 1 hPa 0 mm - - -
1788210798 22.78° C 99% 1 hPa 0 mm - - -
1788208840 23.89° C 94% 1 hPa 0 mm - - -
1788206905 23.89° C 94% 1 hPa 0 mm - - -
1788204967 23.89° C 99% 1 hPa 0 mm - - -
1788203032 23.89° C 99% 1 hPa 0 mm - - -
1788201092 23.89° C 99% 1 hPa 0 mm - - -

* Rain latest hour (hover to see other rain measurements)
** Current wind speed in m/s (hover to see current wind gust speed)